createdAt,value
2022-12-26T00:00:30.696Z,7.27
2022-12-26T00:02:58.144Z,7.97
2022-12-26T00:05:25.422Z,7.83
2022-12-26T00:07:52.541Z,7.67
2022-12-26T00:10:19.769Z,6.80
2022-12-26T00:12:46.943Z,6.57
2022-12-26T00:15:14.097Z,6.03
2022-12-26T00:17:41.326Z,5.93
2022-12-26T00:20:08.722Z,5.53
2022-12-26T00:22:35.870Z,5.23
2022-12-26T00:25:03.108Z,5.47
2022-12-26T00:27:30.265Z,5.73
2022-12-26T00:29:57.427Z,5.93
2022-12-26T00:32:24.611Z,5.53
2022-12-26T00:34:51.778Z,5.27
2022-12-26T00:37:18.934Z,6.03
2022-12-26T00:39:46.094Z,5.30
2022-12-26T00:42:13.349Z,6.40
2022-12-26T00:44:40.524Z,5.70
2022-12-26T00:47:07.773Z,6.13
2022-12-26T00:50:11.309Z,6.33
2022-12-26T00:52:22.215Z,6.30
2022-12-26T00:54:49.461Z,6.37
2022-12-26T00:57:16.664Z,6.10
2022-12-26T00:59:43.810Z,5.97
2022-12-26T01:02:31.068Z,6.00
2022-12-26T01:04:58.273Z,6.17
2022-12-26T01:07:25.400Z,6.70
2022-12-26T01:09:52.623Z,5.60
2022-12-26T01:12:19.780Z,5.50
2022-12-26T01:14:46.915Z,5.80
2022-12-26T01:17:14.182Z,5.43
2022-12-26T01:19:41.353Z,5.87
2022-12-26T01:22:08.518Z,5.60
2022-12-26T01:24:35.658Z,6.00
2022-12-26T01:27:02.804Z,6.03
2022-12-26T01:29:30.238Z,5.90
2022-12-26T01:31:57.507Z,5.80
2022-12-26T01:34:24.881Z,5.50
2022-12-26T01:36:55.180Z,5.70
2022-12-26T01:39:22.361Z,5.30
2022-12-26T01:41:49.644Z,5.40
2022-12-26T01:44:35.372Z,5.07
2022-12-26T01:47:02.553Z,4.87
2022-12-26T01:49:32.430Z,4.50
2022-12-26T01:52:01.204Z,4.90
2022-12-26T01:54:40.460Z,5.30
2022-12-26T01:57:21.929Z,4.70
2022-12-26T01:59:50.130Z,4.17
2022-12-26T02:02:18.964Z,3.80
2022-12-26T02:05:06.560Z,3.63
2022-12-26T02:07:35.366Z,3.80
2022-12-26T02:10:03.142Z,3.23
2022-12-26T02:12:35.769Z,3.50
2022-12-26T02:15:06.200Z,3.47
2022-12-26T02:17:33.468Z,3.13
2022-12-26T02:20:06.399Z,3.20
2022-12-26T02:22:52.314Z,3.03
2022-12-26T02:25:33.478Z,2.80
2022-12-26T02:28:19.447Z,2.60
2022-12-26T02:31:05.695Z,2.97
2022-12-26T02:33:40.923Z,2.90
2022-12-26T02:36:20.246Z,2.70
2022-12-26T02:38:53.388Z,2.80
2022-12-26T02:41:32.481Z,2.67
2022-12-26T02:44:47.525Z,2.40
2022-12-26T02:47:33.199Z,2.13
2022-12-26T02:50:28.273Z,2.10
2022-12-26T02:53:28.104Z,2.20
2022-12-26T02:56:18.958Z,2.00
2022-12-26T02:59:18.816Z,2.10
2022-12-26T03:02:06.513Z,1.90
2022-12-26T03:04:54.508Z,1.90
2022-12-26T03:07:53.172Z,2.00
2022-12-26T03:10:48.529Z,2.07
2022-12-26T03:13:23.294Z,2.13
2022-12-26T03:16:21.422Z,2.13
2022-12-26T03:18:59.073Z,2.40
2022-12-26T03:21:29.904Z,2.53
2022-12-26T03:23:57.539Z,2.40
2022-12-26T03:26:39.648Z,2.70
2022-12-26T03:29:30.455Z,3.53
2022-12-26T03:31:57.876Z,3.40
2022-12-26T03:34:25.131Z,3.10
2022-12-26T03:36:52.247Z,3.00
2022-12-26T03:39:45.477Z,3.67
2022-12-26T03:42:40.509Z,3.63
2022-12-26T03:45:32.116Z,3.50
2022-12-26T03:48:23.611Z,3.30
2022-12-26T03:51:14.073Z,4.60
2022-12-26T03:54:22.609Z,3.50
2022-12-26T03:57:13.272Z,4.90
2022-12-26T04:00:06.270Z,3.40
2022-12-26T04:02:52.874Z,3.80
2022-12-26T04:05:39.060Z,3.70
2022-12-26T04:08:30.211Z,3.53
2022-12-26T04:11:17.274Z,4.00
2022-12-26T04:14:10.419Z,4.93
2022-12-26T04:16:58.908Z,4.10
2022-12-26T04:19:29.173Z,4.73
2022-12-26T04:22:23.125Z,4.43
2022-12-26T04:25:22.532Z,4.70
2022-12-26T04:28:28.315Z,4.70
2022-12-26T04:31:20.264Z,4.90
2022-12-26T04:34:12.152Z,6.77
2022-12-26T04:37:03.246Z,5.17
2022-12-26T04:39:50.207Z,4.60
2022-12-26T04:42:37.311Z,4.57
2022-12-26T04:45:06.220Z,5.50
2022-12-26T04:47:33.520Z,4.67
2022-12-26T04:50:15.493Z,4.73
2022-12-26T04:52:58.543Z,4.60
2022-12-26T04:55:26.794Z,4.97
2022-12-26T04:57:53.959Z,5.00
2022-12-26T05:00:21.860Z,4.37
2022-12-26T05:03:08.095Z,4.60
2022-12-26T05:05:59.811Z,5.23
2022-12-26T05:08:51.491Z,4.20
2022-12-26T05:11:18.648Z,4.33
2022-12-26T05:13:45.874Z,4.60
2022-12-26T05:16:32.025Z,5.30
2022-12-26T05:19:18.081Z,4.53
2022-12-26T05:22:04.066Z,4.10
2022-12-26T05:24:52.808Z,4.40
2022-12-26T05:27:38.914Z,4.60
2022-12-26T05:30:06.825Z,4.27
2022-12-26T05:32:52.626Z,4.20
2022-12-26T05:35:20.280Z,4.40
2022-12-26T05:37:47.458Z,4.40
2022-12-26T05:40:14.620Z,4.40
2022-12-26T05:42:41.727Z,4.80
2022-12-26T05:45:09.050Z,4.50
2022-12-26T05:47:36.308Z,4.70
2022-12-26T05:50:04.161Z,4.50
2022-12-26T05:52:31.349Z,4.80
2022-12-26T05:54:58.501Z,4.90
2022-12-26T05:57:25.646Z,5.10
2022-12-26T05:59:52.780Z,5.07
2022-12-26T06:02:20.045Z,4.80
2022-12-26T06:04:47.341Z,5.50
2022-12-26T06:07:14.530Z,4.53
2022-12-26T06:09:41.670Z,4.93
2022-12-26T06:12:08.802Z,5.03
2022-12-26T06:14:35.948Z,5.23
2022-12-26T06:17:03.209Z,5.40
2022-12-26T06:19:30.344Z,5.33
2022-12-26T06:21:57.685Z,5.20
2022-12-26T06:24:24.874Z,5.53
2022-12-26T06:26:52.062Z,5.17
2022-12-26T06:29:19.221Z,5.20
2022-12-26T06:31:46.497Z,5.27
2022-12-26T06:34:13.820Z,5.60
2022-12-26T06:36:41.010Z,5.33
2022-12-26T06:39:08.287Z,5.67
2022-12-26T06:41:35.429Z,5.30
2022-12-26T06:44:02.735Z,5.53
2022-12-26T06:46:29.988Z,5.03
2022-12-26T06:48:57.121Z,5.33
2022-12-26T06:51:25.362Z,5.03
2022-12-26T06:53:53.239Z,4.83
2022-12-26T06:56:21.868Z,5.13
2022-12-26T06:58:49.441Z,5.03
2022-12-26T07:01:18.963Z,4.60
2022-12-26T07:03:51.209Z,4.73
2022-12-26T07:06:27.309Z,5.17
2022-12-26T07:08:57.390Z,4.80
2022-12-26T07:11:26.261Z,4.40
2022-12-26T07:13:54.532Z,4.17
2022-12-26T07:16:21.837Z,4.20
2022-12-26T07:18:49.132Z,3.70
2022-12-26T07:21:16.865Z,4.07
2022-12-26T07:23:44.067Z,3.80
2022-12-26T07:26:11.264Z,4.10
2022-12-26T07:28:38.599Z,3.60
2022-12-26T07:31:06.061Z,3.70
2022-12-26T07:33:34.490Z,3.60
2022-12-26T07:36:06.127Z,3.50
2022-12-26T07:38:33.710Z,3.40
2022-12-26T07:41:21.109Z,3.73
2022-12-26T07:43:48.293Z,3.50
2022-12-26T07:46:15.486Z,3.30
2022-12-26T07:48:42.821Z,2.83
2022-12-26T07:51:09.986Z,3.27
2022-12-26T07:53:37.151Z,3.20
2022-12-26T07:56:04.307Z,3.03
2022-12-26T07:58:31.474Z,2.70
2022-12-26T08:01:02.158Z,2.50
2022-12-26T08:03:29.575Z,2.80
2022-12-26T08:05:57.120Z,2.40
2022-12-26T08:08:24.342Z,2.70
2022-12-26T08:10:59.216Z,2.47
2022-12-26T08:13:26.403Z,2.70
2022-12-26T08:15:53.567Z,2.60
2022-12-26T08:18:20.869Z,2.20
2022-12-26T08:20:48.007Z,2.30
2022-12-26T08:23:15.189Z,2.50
2022-12-26T08:25:42.474Z,2.50
2022-12-26T08:28:09.597Z,2.20
2022-12-26T08:30:40.075Z,2.40
2022-12-26T08:33:07.692Z,2.50
2022-12-26T08:35:38.960Z,2.60
2022-12-26T08:38:06.314Z,2.20
2022-12-26T08:40:43.191Z,2.10
2022-12-26T08:46:18.602Z,2.40
2022-12-26T08:48:46.209Z,2.40
2022-12-26T08:51:17.544Z,2.37
2022-12-26T08:53:45.939Z,2.40
2022-12-26T08:56:14.803Z,2.40
2022-12-26T08:58:42.293Z,2.77
2022-12-26T09:01:12.807Z,2.60
2022-12-26T09:03:40.724Z,2.73
2022-12-26T09:06:08.071Z,2.80
2022-12-26T09:08:35.824Z,3.00
2022-12-26T09:11:06.731Z,3.30
2022-12-26T09:13:34.392Z,2.80
2022-12-26T09:16:05.999Z,3.13
2022-12-26T09:18:33.352Z,3.00
2022-12-26T09:21:01.433Z,3.17
2022-12-26T09:23:29.216Z,3.10
2022-12-26T09:25:56.550Z,3.03
2022-12-26T09:28:23.785Z,3.63
2022-12-26T09:30:51.019Z,3.33
2022-12-26T09:33:18.156Z,3.77
2022-12-26T09:35:45.434Z,3.50
2022-12-26T09:38:12.612Z,3.20
2022-12-26T09:40:55.743Z,3.50
2022-12-26T09:43:28.559Z,3.13
2022-12-26T09:46:07.115Z,3.00
2022-12-26T09:48:38.507Z,3.10
2022-12-26T09:51:05.794Z,2.90
2022-12-26T09:53:35.979Z,3.10
2022-12-26T09:56:06.532Z,2.83
2022-12-26T09:58:45.670Z,2.70
2022-12-26T10:01:20.611Z,2.70
2022-12-26T10:03:52.906Z,2.93
2022-12-26T10:06:24.736Z,2.77
2022-12-26T10:08:58.044Z,2.73
2022-12-26T10:11:43.740Z,2.50
2022-12-26T10:14:19.669Z,2.30
2022-12-26T10:16:48.610Z,2.37
2022-12-26T10:19:34.312Z,2.30
2022-12-26T10:22:01.425Z,2.50
2022-12-26T10:24:31.480Z,2.33
2022-12-26T10:27:02.507Z,2.43
2022-12-26T10:29:33.101Z,2.90
2022-12-26T10:32:02.775Z,2.43
2022-12-26T10:34:32.128Z,2.50
2022-12-26T10:37:05.209Z,2.50
2022-12-26T10:39:50.845Z,2.60
2022-12-26T10:42:23.764Z,2.80
2022-12-26T10:44:50.957Z,2.70
2022-12-26T10:47:29.166Z,2.70
2022-12-26T10:49:59.815Z,2.40
2022-12-26T10:52:29.130Z,2.80
2022-12-26T10:55:27.437Z,2.40
2022-12-26T10:57:46.920Z,2.43
2022-12-26T11:00:19.660Z,2.90
2022-12-26T11:02:47.077Z,2.23
2022-12-26T11:05:39.865Z,2.20
2022-12-26T11:08:17.657Z,1.97
2022-12-26T11:10:51.480Z,2.10
2022-12-26T11:13:20.888Z,2.00
2022-12-26T11:15:52.809Z,2.00
2022-12-26T11:18:41.076Z,1.83
2022-12-26T11:21:20.509Z,2.10
2022-12-26T11:23:49.355Z,2.00
2022-12-26T11:26:27.244Z,2.00
2022-12-26T11:29:09.095Z,2.20
2022-12-26T11:31:36.463Z,2.00
2022-12-26T11:34:08.578Z,2.00
2022-12-26T11:36:36.761Z,1.97
2022-12-26T11:39:05.590Z,1.73
2022-12-26T11:41:36.762Z,2.17
2022-12-26T11:44:10.274Z,2.10
2022-12-26T11:46:57.160Z,2.30
2022-12-26T11:49:28.373Z,2.30
2022-12-26T11:51:59.179Z,2.03
2022-12-26T11:54:33.935Z,2.03
2022-12-26T11:57:12.603Z,2.23
2022-12-26T11:59:40.069Z,2.00
2022-12-26T12:02:19.659Z,2.47
2022-12-26T12:04:47.581Z,1.90
2022-12-26T12:07:17.757Z,2.43
2022-12-26T12:09:59.996Z,2.40
2022-12-26T12:12:36.062Z,2.30
2022-12-26T12:15:03.297Z,2.77
2022-12-26T12:17:53.508Z,2.57
2022-12-26T12:20:40.912Z,2.50
2022-12-26T12:23:20.941Z,2.40
2022-12-26T12:26:00.555Z,2.63
2022-12-26T12:28:27.671Z,2.30
2022-12-26T12:31:00.575Z,2.30
2022-12-26T12:33:40.130Z,2.40
2022-12-26T12:36:10.043Z,2.47
2022-12-26T12:38:43.257Z,2.50
2022-12-26T12:41:22.824Z,2.73
2022-12-26T12:43:49.967Z,2.53
2022-12-26T12:46:26.120Z,2.90
2022-12-26T12:48:53.232Z,2.60
2022-12-26T12:51:26.592Z,2.33
2022-12-26T12:54:12.725Z,3.83
2022-12-26T12:56:42.394Z,3.43
2022-12-26T12:59:28.907Z,3.90
2022-12-26T13:02:08.587Z,3.20
2022-12-26T13:04:42.966Z,3.70
2022-12-26T13:07:13.593Z,4.73
2022-12-26T13:10:01.135Z,2.90
2022-12-26T13:12:32.700Z,3.47
2022-12-26T13:15:02.305Z,2.77
2022-12-26T13:17:35.740Z,2.40
2022-12-26T13:20:13.970Z,2.43
2022-12-26T13:23:28.035Z,2.63
2022-12-26T13:26:16.850Z,2.50
2022-12-26T13:28:48.919Z,2.10
2022-12-26T13:31:16.401Z,2.50
2022-12-26T13:33:44.551Z,2.27
2022-12-26T13:36:31.675Z,2.50
2022-12-26T13:38:59.092Z,2.40
2022-12-26T13:41:45.450Z,2.00
2022-12-26T13:44:21.588Z,2.10
2022-12-26T13:46:48.719Z,1.90
2022-12-26T13:49:39.676Z,2.10
2022-12-26T13:52:14.947Z,2.10
2022-12-26T13:54:48.318Z,2.00
2022-12-26T13:57:36.684Z,2.13
2022-12-26T14:00:10.436Z,1.93
2022-12-26T14:03:17.458Z,1.83
2022-12-26T14:05:58.462Z,2.00
2022-12-26T14:08:46.417Z,2.03
2022-12-26T14:11:17.995Z,2.20
2022-12-26T14:13:57.086Z,2.03
2022-12-26T14:16:24.477Z,2.00
2022-12-26T14:19:01.047Z,1.97
2022-12-26T14:21:30.982Z,1.73
2022-12-26T14:24:04.372Z,2.30
2022-12-26T14:26:40.355Z,2.67
2022-12-26T14:29:13.968Z,2.80
2022-12-26T14:31:41.133Z,3.40
2022-12-26T14:34:17.402Z,3.20
2022-12-26T14:36:50.452Z,3.53
2022-12-26T14:39:17.599Z,3.20
2022-12-26T14:42:22.169Z,3.30
2022-12-26T14:44:50.461Z,3.33
2022-12-26T14:47:35.909Z,3.97
2022-12-26T14:50:22.115Z,4.90
2022-12-26T14:52:49.808Z,5.00
2022-12-26T14:55:35.893Z,6.10
2022-12-26T14:58:23.285Z,7.93
2022-12-26T15:00:50.576Z,6.73
2022-12-26T15:03:36.462Z,7.60
2022-12-26T15:06:21.906Z,9.47
2022-12-26T15:08:54.960Z,8.77
2022-12-26T15:11:40.697Z,6.43
2022-12-26T15:14:32.250Z,10.33
2022-12-26T15:17:02.538Z,11.93
2022-12-26T15:19:35.607Z,7.47
2022-12-26T15:22:21.817Z,16.40
2022-12-26T15:28:00.493Z,11.83
2022-12-26T15:30:39.684Z,8.93
2022-12-26T15:33:11.571Z,11.70
2022-12-26T15:35:51.272Z,26.10
2022-12-26T15:38:18.680Z,23.30
2022-12-26T15:40:52.292Z,22.13
2022-12-26T15:43:25.513Z,15.50
2022-12-26T15:46:05.429Z,19.67
2022-12-26T15:48:38.684Z,20.13
2022-12-26T15:51:05.965Z,19.80
2022-12-26T15:53:39.381Z,11.87
2022-12-26T15:56:24.984Z,13.50
2022-12-26T15:59:18.006Z,14.93
2022-12-26T16:01:46.775Z,10.40
2022-12-26T16:04:22.184Z,8.17
2022-12-26T16:06:51.626Z,7.33
2022-12-26T16:09:24.971Z,6.57
2022-12-26T16:11:56.457Z,6.77
2022-12-26T16:14:26.500Z,6.50
2022-12-26T16:16:53.800Z,5.30
2022-12-26T16:19:27.034Z,4.90
2022-12-26T16:22:21.121Z,4.40
2022-12-26T16:24:51.440Z,3.17
2022-12-26T16:27:19.857Z,3.37
2022-12-26T16:29:52.066Z,3.20
2022-12-26T16:32:21.139Z,3.80
2022-12-26T16:34:49.239Z,4.00
2022-12-26T16:37:19.673Z,4.20
2022-12-26T16:40:05.041Z,4.40
2022-12-26T16:42:32.895Z,4.27
2022-12-26T16:45:00.298Z,4.57
2022-12-26T16:47:27.953Z,5.67
2022-12-26T16:49:55.140Z,5.67
2022-12-26T16:52:48.682Z,3.10
2022-12-26T16:55:34.438Z,2.63
2022-12-26T16:58:02.970Z,2.50
2022-12-26T17:00:30.267Z,2.33
2022-12-26T17:02:59.382Z,2.33
2022-12-26T17:05:31.295Z,2.10
2022-12-26T17:08:00.708Z,2.67
2022-12-26T17:10:29.218Z,2.13
2022-12-26T17:12:58.017Z,2.27
2022-12-26T17:15:27.633Z,2.60
2022-12-26T17:17:55.038Z,1.90
2022-12-26T17:20:25.134Z,2.13
2022-12-26T17:22:56.109Z,2.10
2022-12-26T17:25:26.284Z,2.37
2022-12-26T17:28:20.167Z,2.17
2022-12-26T17:30:53.292Z,2.40
2022-12-26T17:33:22.578Z,1.90
2022-12-26T17:38:46.779Z,2.80
2022-12-26T17:41:15.715Z,2.13
2022-12-26T17:43:43.246Z,2.30
2022-12-26T17:46:13.807Z,2.27
2022-12-26T17:48:41.895Z,2.23
2022-12-26T17:51:12.855Z,2.17
2022-12-26T17:53:43.901Z,2.17
2022-12-26T17:56:15.889Z,2.67
2022-12-26T17:58:43.457Z,2.50
2022-12-26T18:01:12.771Z,2.20
2022-12-26T18:03:44.495Z,2.33
2022-12-26T18:06:14.506Z,2.70
2022-12-26T18:08:41.820Z,2.13
2022-12-26T18:11:10.659Z,2.13
2022-12-26T18:13:37.838Z,2.40
2022-12-26T18:16:07.242Z,2.40
2022-12-26T18:18:39.068Z,2.50
2022-12-26T18:21:07.339Z,2.53
2022-12-26T18:23:34.663Z,2.70
2022-12-26T18:26:03.133Z,3.08
2022-12-26T18:28:30.522Z,3.07
2022-12-26T18:30:58.186Z,2.50
2022-12-26T18:33:25.599Z,3.03
2022-12-26T18:35:53.199Z,2.60
2022-12-26T18:38:22.045Z,2.57
2022-12-26T18:40:53.032Z,2.60
2022-12-26T18:43:20.489Z,2.97
2022-12-26T18:45:47.759Z,3.27
2022-12-26T18:48:16.114Z,2.60
2022-12-26T18:50:43.515Z,2.87
2022-12-26T18:53:10.962Z,3.00
2022-12-26T18:55:38.421Z,3.17
2022-12-26T18:58:06.141Z,2.10
2022-12-26T19:00:33.674Z,2.80
2022-12-26T19:03:00.847Z,3.50
2022-12-26T19:05:32.843Z,3.03
2022-12-26T19:08:00.661Z,2.97
2022-12-26T19:10:31.973Z,2.30
2022-12-26T19:13:05.690Z,2.53
2022-12-26T19:15:33.968Z,3.07
2022-12-26T19:18:01.494Z,2.83
2022-12-26T19:20:28.909Z,3.00
2022-12-26T19:22:56.669Z,2.73
2022-12-26T19:25:25.080Z,2.90
2022-12-26T19:27:53.679Z,2.90
2022-12-26T19:30:21.440Z,2.10
2022-12-26T19:32:49.063Z,2.33
2022-12-26T19:35:16.445Z,2.93
2022-12-26T19:37:43.864Z,3.20
2022-12-26T19:40:11.843Z,3.00
2022-12-26T19:42:39.052Z,2.70
2022-12-26T19:45:07.120Z,2.63
2022-12-26T19:47:34.772Z,2.80
2022-12-26T19:50:02.384Z,3.10
2022-12-26T19:52:29.603Z,3.47
2022-12-26T19:54:56.852Z,2.77
2022-12-26T19:57:24.026Z,2.67
2022-12-26T19:59:51.716Z,2.87
2022-12-26T20:02:19.089Z,3.20
2022-12-26T20:04:46.576Z,3.30
2022-12-26T20:07:13.848Z,2.90
2022-12-26T20:09:41.211Z,2.67
2022-12-26T20:12:09.227Z,2.60
2022-12-26T20:14:37.493Z,3.07
2022-12-26T20:17:07.152Z,3.20
2022-12-26T20:19:35.402Z,2.80
2022-12-26T20:22:02.594Z,2.80
2022-12-26T20:24:29.739Z,3.00
2022-12-26T20:26:56.899Z,3.23
2022-12-26T20:29:24.072Z,3.87
2022-12-26T20:31:54.938Z,3.17
2022-12-26T20:34:22.317Z,3.47
2022-12-26T20:36:49.458Z,3.47
2022-12-26T20:39:17.976Z,3.20
2022-12-26T20:41:45.586Z,2.90
2022-12-26T20:44:13.620Z,3.20
2022-12-26T20:46:41.059Z,3.43
2022-12-26T20:49:09.013Z,3.10
2022-12-26T20:51:38.160Z,3.13
2022-12-26T20:54:06.423Z,3.57
2022-12-26T20:56:34.024Z,2.87
2022-12-26T20:59:01.235Z,3.43
2022-12-26T21:01:29.007Z,3.77
2022-12-26T21:03:57.365Z,3.10
2022-12-26T21:06:34.998Z,2.70
2022-12-26T21:09:02.744Z,3.23
2022-12-26T21:11:31.318Z,2.63
2022-12-26T21:14:02.932Z,2.23
2022-12-26T21:16:40.522Z,2.57
2022-12-26T21:19:14.944Z,2.70
2022-12-26T21:21:44.187Z,2.70
2022-12-26T21:24:12.896Z,2.90
2022-12-26T21:26:41.888Z,2.97
2022-12-26T21:29:11.370Z,2.47
2022-12-26T21:31:39.299Z,2.20
2022-12-26T21:34:06.936Z,2.10
2022-12-26T21:36:35.292Z,2.90
2022-12-26T21:39:06.050Z,2.37
2022-12-26T21:41:33.186Z,2.40
2022-12-26T21:44:00.361Z,2.17
2022-12-26T21:46:27.668Z,3.00
2022-12-26T21:48:55.222Z,3.40
2022-12-26T21:51:24.974Z,2.60
2022-12-26T21:53:52.137Z,3.07
2022-12-26T21:56:19.350Z,3.17
2022-12-26T21:59:05.391Z,2.90
2022-12-26T22:01:32.703Z,3.10
2022-12-26T22:04:18.578Z,3.47
2022-12-26T22:06:45.792Z,2.50
2022-12-26T22:09:14.885Z,2.83
2022-12-26T22:12:00.752Z,2.73
2022-12-26T22:14:28.979Z,2.17
2022-12-26T22:16:56.742Z,2.13
2022-12-26T22:19:24.550Z,2.10
2022-12-26T22:21:53.607Z,2.30
2022-12-26T22:24:21.880Z,1.63
2022-12-26T22:26:49.446Z,1.83
2022-12-26T22:29:16.780Z,1.80
2022-12-26T22:31:44.083Z,2.20
2022-12-26T22:34:12.507Z,2.40
2022-12-26T22:36:40.509Z,2.40
2022-12-26T22:39:08.141Z,2.70
2022-12-26T22:41:35.535Z,2.57
2022-12-26T22:44:02.734Z,2.97
2022-12-26T22:46:30.019Z,2.57
2022-12-26T22:48:57.267Z,2.33
2022-12-26T22:51:25.312Z,2.80
2022-12-26T22:53:56.901Z,2.60
2022-12-26T22:56:24.508Z,2.90
2022-12-26T22:59:00.633Z,2.90
2022-12-26T23:01:28.333Z,2.60
2022-12-26T23:03:55.739Z,2.50
2022-12-26T23:06:27.493Z,3.10
2022-12-26T23:08:56.931Z,2.70
2022-12-26T23:11:28.779Z,2.53
2022-12-26T23:14:01.675Z,3.28
2022-12-26T23:16:38.848Z,2.73
2022-12-26T23:19:31.221Z,2.73
2022-12-26T23:21:59.200Z,2.57
2022-12-26T23:24:27.759Z,2.53
2022-12-26T23:27:17.881Z,2.93
2022-12-26T23:30:05.368Z,2.60
2022-12-26T23:32:33.619Z,2.70
2022-12-26T23:35:00.794Z,2.70
2022-12-26T23:37:28.041Z,2.70
2022-12-26T23:39:55.251Z,2.70
2022-12-26T23:42:22.432Z,2.90
2022-12-26T23:44:49.620Z,2.47
2022-12-26T23:47:16.750Z,2.57
2022-12-26T23:49:43.953Z,2.70
2022-12-26T23:52:11.173Z,2.40
2022-12-26T23:54:38.380Z,2.10
2022-12-26T23:57:05.695Z,2.07
2022-12-26T23:59:32.866Z,2.10
